createdAt,value
2018-11-28T00:00:57.889Z,25.92
2018-11-28T00:03:25.361Z,19.62
2018-11-28T00:05:53.868Z,22.65
2018-11-28T00:08:21.329Z,24.35
2018-11-28T00:10:49.168Z,22.10
2018-11-28T00:13:16.668Z,22.62
2018-11-28T00:15:44.105Z,21.45
2018-11-28T00:18:12.945Z,21.90
2018-11-28T00:20:40.477Z,25.60
2018-11-28T00:23:08.006Z,22.55
2018-11-28T00:25:35.465Z,20.45
2018-11-28T00:28:02.962Z,19.40
2018-11-28T00:30:30.459Z,22.52
2018-11-28T00:32:57.927Z,21.75
2018-11-28T00:35:25.453Z,21.27
2018-11-28T00:37:52.905Z,22.27
2018-11-28T00:40:21.397Z,20.70
2018-11-28T00:42:48.895Z,23.98
2018-11-28T00:45:20.873Z,20.55
2018-11-28T00:47:48.432Z,19.92
2018-11-28T00:50:18.057Z,18.10
2018-11-28T00:52:45.680Z,22.00
2018-11-28T00:55:14.220Z,20.30
2018-11-28T00:57:41.953Z,22.52
2018-11-28T01:00:16.241Z,22.80
2018-11-28T01:02:43.781Z,20.60
2018-11-28T01:05:11.880Z,22.32
2018-11-28T01:07:39.601Z,22.25
2018-11-28T01:10:11.312Z,22.32
2018-11-28T01:12:38.596Z,24.12
2018-11-28T01:15:07.413Z,23.27
2018-11-28T01:17:34.662Z,18.95
2018-11-28T01:20:01.958Z,21.60
2018-11-28T01:22:29.228Z,23.18
2018-11-28T01:24:56.701Z,21.48
2018-11-28T01:27:24.160Z,20.05
2018-11-28T01:29:54.664Z,24.67
2018-11-28T01:32:22.084Z,22.25
2018-11-28T01:34:49.685Z,24.65
2018-11-28T01:37:17.112Z,25.32
2018-11-28T01:39:44.562Z,27.52
2018-11-28T01:42:12.088Z,25.00
2018-11-28T01:44:39.737Z,23.90
2018-11-28T01:47:07.286Z,23.18
2018-11-28T01:49:34.725Z,22.07
2018-11-28T01:52:02.252Z,24.52
2018-11-28T01:54:29.678Z,25.37
2018-11-28T01:56:57.328Z,26.33
2018-11-28T01:59:24.758Z,23.00
2018-11-28T02:01:52.219Z,24.75
2018-11-28T02:04:19.685Z,23.90
2018-11-28T02:06:47.217Z,21.70
2018-11-28T02:09:14.624Z,20.37
2018-11-28T02:11:42.096Z,25.75
2018-11-28T02:14:09.528Z,23.02
2018-11-28T02:16:36.964Z,20.65
2018-11-28T02:19:04.608Z,25.02
2018-11-28T02:21:32.061Z,23.98
2018-11-28T02:23:59.501Z,20.77
2018-11-28T02:26:26.952Z,23.02
2018-11-28T02:28:55.156Z,23.20
2018-11-28T02:31:24.164Z,29.63
2018-11-28T02:33:51.629Z,23.80
2018-11-28T02:36:19.050Z,23.83
2018-11-28T02:38:46.782Z,22.50
2018-11-28T02:41:14.220Z,24.72
2018-11-28T02:43:41.649Z,21.97
2018-11-28T02:46:20.689Z,22.85
2018-11-28T02:48:48.153Z,25.12
2018-11-28T02:51:15.593Z,21.37
2018-11-28T02:53:43.041Z,24.10
2018-11-28T02:56:10.485Z,21.42
2018-11-28T02:58:38.195Z,24.47
2018-11-28T03:01:05.927Z,25.08
2018-11-28T03:03:33.369Z,22.85
2018-11-28T03:06:00.870Z,24.15
2018-11-28T03:08:28.288Z,27.58
2018-11-28T03:10:55.725Z,21.12
2018-11-28T03:13:23.205Z,26.50
2018-11-28T03:15:53.821Z,24.87
2018-11-28T03:18:22.213Z,25.62
2018-11-28T03:20:49.915Z,25.80
2018-11-28T03:23:17.372Z,24.35
2018-11-28T03:25:44.875Z,20.55
2018-11-28T03:28:13.162Z,24.07
2018-11-28T03:30:40.626Z,22.02
2018-11-28T03:33:08.065Z,21.80
2018-11-28T03:35:35.503Z,26.45
2018-11-28T03:38:03.022Z,25.02
2018-11-28T03:40:30.867Z,21.65
2018-11-28T03:42:58.379Z,20.88
2018-11-28T03:45:30.407Z,25.30
2018-11-28T03:47:57.997Z,30.50
2018-11-28T03:50:25.438Z,27.42
2018-11-28T03:52:52.878Z,27.13
2018-11-28T03:55:20.335Z,31.65
2018-11-28T03:57:47.861Z,22.55
2018-11-28T04:00:18.373Z,26.57
2018-11-28T04:02:46.173Z,22.25
2018-11-28T04:05:13.689Z,26.75
2018-11-28T04:07:41.217Z,27.32
2018-11-28T04:10:10.413Z,23.32
2018-11-28T04:12:38.601Z,25.52
2018-11-28T04:15:12.288Z,23.05
2018-11-28T04:17:39.749Z,26.23
2018-11-28T04:20:09.844Z,25.02
2018-11-28T04:22:37.301Z,21.87
2018-11-28T04:25:06.364Z,24.60
2018-11-28T04:27:33.617Z,26.85
2018-11-28T04:30:01.143Z,25.52
2018-11-28T04:32:28.616Z,22.35
2018-11-28T04:34:56.487Z,29.82
2018-11-28T04:37:23.929Z,29.25
2018-11-28T04:39:51.467Z,23.77
2018-11-28T04:42:18.881Z,23.18
2018-11-28T04:44:46.386Z,26.35
2018-11-28T04:47:14.214Z,24.95
2018-11-28T04:49:41.337Z,24.87
2018-11-28T04:52:08.797Z,23.55
2018-11-28T04:54:36.287Z,23.92
2018-11-28T04:57:03.770Z,21.25
2018-11-28T04:59:31.234Z,25.27
2018-11-28T05:01:58.724Z,22.90
2018-11-28T05:04:44.873Z,24.85
2018-11-28T05:07:27.840Z,24.70
2018-11-28T05:09:55.401Z,23.27
2018-11-28T05:12:22.683Z,24.98
2018-11-28T05:14:50.313Z,24.23
2018-11-28T05:17:17.732Z,22.40
2018-11-28T05:19:45.037Z,23.02
2018-11-28T05:22:12.485Z,30.37
2018-11-28T05:24:39.752Z,23.32
2018-11-28T05:27:07.145Z,22.42
2018-11-28T05:29:34.406Z,22.70
2018-11-28T05:32:02.573Z,22.58
2018-11-28T05:34:30.040Z,22.95
2018-11-28T05:36:57.476Z,25.68
2018-11-28T05:39:24.929Z,25.85
2018-11-28T05:41:52.376Z,23.20
2018-11-28T05:44:19.961Z,23.05
2018-11-28T05:46:47.705Z,25.55
2018-11-28T05:49:15.279Z,26.27
2018-11-28T05:51:42.640Z,25.68
2018-11-28T05:54:10.089Z,21.80
2018-11-28T05:56:37.587Z,21.87
2018-11-28T05:59:05.505Z,22.07
2018-11-28T06:01:32.984Z,22.00
2018-11-28T06:04:00.433Z,25.43
2018-11-28T06:06:29.917Z,19.77
2018-11-28T06:08:57.365Z,19.87
2018-11-28T06:11:24.846Z,22.55
2018-11-28T06:13:52.402Z,22.67
2018-11-28T06:16:19.925Z,22.52
2018-11-28T06:18:47.446Z,27.93
2018-11-28T06:21:14.940Z,24.37
2018-11-28T06:23:42.445Z,20.85
2018-11-28T06:26:09.966Z,23.65
2018-11-28T06:28:37.438Z,20.62
2018-11-28T06:31:05.380Z,23.80
2018-11-28T06:33:33.013Z,22.02
2018-11-28T06:36:00.521Z,21.85
2018-11-28T06:38:28.088Z,20.43
2018-11-28T06:40:55.738Z,19.65
2018-11-28T06:43:23.236Z,29.30
2018-11-28T06:45:50.797Z,22.13
2018-11-28T06:48:18.341Z,18.27
2018-11-28T06:50:46.025Z,19.80
2018-11-28T06:53:13.484Z,19.87
2018-11-28T06:55:41.057Z,18.52
2018-11-28T06:58:08.521Z,20.25
2018-11-28T07:00:37.293Z,18.87
2018-11-28T07:03:04.993Z,20.27
2018-11-28T07:05:32.568Z,25.97
2018-11-28T07:08:01.309Z,21.10
2018-11-28T07:10:28.921Z,24.65
2018-11-28T07:12:56.400Z,19.30
2018-11-28T07:15:24.525Z,22.93
2018-11-28T07:17:52.165Z,20.75
2018-11-28T07:20:19.732Z,21.40
2018-11-28T07:22:47.592Z,21.37
2018-11-28T07:25:16.808Z,20.40
2018-11-28T07:27:45.639Z,22.95
2018-11-28T07:30:13.779Z,20.82
2018-11-28T07:32:41.339Z,19.82
2018-11-28T07:35:09.589Z,22.98
2018-11-28T07:37:37.442Z,20.88
2018-11-28T07:40:09.424Z,20.68
2018-11-28T07:42:37.155Z,23.77
2018-11-28T07:45:07.136Z,20.57
2018-11-28T07:47:34.677Z,22.80
2018-11-28T07:50:02.185Z,19.30
2018-11-28T07:52:33.219Z,22.73
2018-11-28T07:55:00.717Z,20.55
2018-11-28T07:57:28.211Z,21.30
2018-11-28T07:59:55.689Z,21.80
2018-11-28T08:02:23.225Z,23.77
2018-11-28T08:04:50.829Z,19.92
2018-11-28T08:07:18.322Z,24.40
2018-11-28T08:09:46.040Z,20.00
2018-11-28T08:12:13.509Z,24.72
2018-11-28T08:14:40.981Z,26.17
2018-11-28T08:17:08.436Z,26.42
2018-11-28T08:19:35.918Z,21.70
2018-11-28T08:22:03.407Z,27.70
2018-11-28T08:24:30.885Z,21.25
2018-11-28T08:26:58.423Z,24.37
2018-11-28T08:29:25.866Z,21.30
2018-11-28T08:31:53.340Z,19.77
2018-11-28T08:34:21.166Z,19.37
2018-11-28T08:36:48.648Z,23.83
2018-11-28T08:39:16.220Z,21.02
2018-11-28T08:41:43.692Z,24.02
2018-11-28T08:44:11.185Z,26.62
2018-11-28T08:46:38.697Z,22.60
2018-11-28T08:49:06.380Z,20.40
2018-11-28T08:51:34.578Z,21.15
2018-11-28T08:54:02.186Z,19.52
2018-11-28T08:56:29.670Z,22.45
2018-11-28T08:58:57.245Z,20.72
2018-11-28T09:01:24.757Z,21.68
2018-11-28T09:03:52.338Z,22.05
2018-11-28T09:06:19.901Z,19.20
2018-11-28T09:08:48.154Z,19.02
2018-11-28T09:11:18.636Z,26.30
2018-11-28T09:13:46.144Z,20.12
2018-11-28T09:16:13.659Z,19.23
2018-11-28T09:18:41.172Z,26.00
2018-11-28T09:21:08.628Z,19.37
2018-11-28T09:23:36.102Z,17.77
2018-11-28T09:26:05.280Z,24.72
2018-11-28T09:28:33.005Z,19.27
2018-11-28T09:31:00.469Z,20.90
2018-11-28T09:33:27.944Z,23.20
2018-11-28T09:35:55.417Z,18.73
2018-11-28T09:38:22.892Z,21.90
2018-11-28T09:40:51.657Z,18.65
2018-11-28T09:43:19.155Z,20.17
2018-11-28T09:45:47.685Z,21.97
2018-11-28T09:48:15.113Z,15.53
2018-11-28T09:50:42.581Z,21.23
2018-11-28T09:53:12.425Z,19.20
2018-11-28T09:55:39.891Z,19.25
2018-11-28T09:58:07.444Z,16.70
2018-11-28T10:00:34.928Z,19.27
2018-11-28T10:03:02.453Z,17.32
2018-11-28T10:05:33.104Z,22.22
2018-11-28T10:08:00.806Z,20.57
2018-11-28T10:10:28.448Z,20.35
2018-11-28T10:12:56.085Z,17.23
2018-11-28T10:15:24.462Z,22.80
2018-11-28T10:17:51.967Z,17.67
2018-11-28T10:20:19.692Z,20.12
2018-11-28T10:22:48.422Z,18.10
2018-11-28T10:25:17.833Z,18.10
2018-11-28T10:27:47.546Z,19.00
2018-11-28T10:30:17.024Z,19.45
2018-11-28T10:32:46.059Z,18.77
2018-11-28T10:35:13.628Z,16.40
2018-11-28T10:37:41.186Z,16.27
2018-11-28T10:40:12.341Z,17.73
2018-11-28T10:42:39.835Z,17.20
2018-11-28T10:45:09.072Z,17.70
2018-11-28T10:47:36.553Z,16.53
2018-11-28T10:50:05.149Z,17.20
2018-11-28T10:52:32.669Z,14.13
2018-11-28T10:55:00.333Z,16.90
2018-11-28T10:57:27.837Z,17.57
2018-11-28T10:59:55.357Z,17.00
2018-11-28T11:02:28.787Z,17.90
2018-11-28T11:05:02.165Z,15.23
2018-11-28T11:08:35.008Z,15.30
2018-11-28T11:11:07.950Z,16.90
2018-11-28T11:13:40.943Z,17.90
2018-11-28T11:16:10.889Z,13.22
2018-11-28T11:18:38.185Z,15.63
2018-11-28T11:21:05.711Z,13.60
2018-11-28T11:23:33.080Z,15.43
2018-11-28T11:26:00.355Z,17.07
2018-11-28T11:28:27.733Z,15.73
2018-11-28T11:30:59.041Z,17.23
2018-11-28T11:33:26.309Z,13.10
2018-11-28T11:35:53.578Z,14.00
2018-11-28T11:38:21.037Z,16.07
2018-11-28T11:40:48.361Z,10.47
2018-11-28T11:43:15.740Z,12.40
2018-11-28T11:45:43.326Z,13.03
2018-11-28T11:48:13.045Z,13.07
2018-11-28T11:50:39.801Z,11.53
2018-11-28T11:53:08.121Z,12.90
2018-11-28T11:55:35.432Z,12.57
2018-11-28T11:58:02.747Z,14.03
2018-11-28T12:00:30.057Z,13.83
2018-11-28T12:03:07.466Z,12.23
2018-11-28T12:05:35.071Z,12.33
2018-11-28T12:08:02.508Z,13.37
2018-11-28T12:10:29.997Z,9.80
2018-11-28T12:12:57.448Z,13.43
2018-11-28T12:15:29.365Z,11.00
2018-11-28T12:17:56.838Z,13.67
2018-11-28T12:20:31.308Z,15.00
2018-11-28T12:22:58.800Z,10.53
2018-11-28T12:25:26.333Z,12.17
2018-11-28T12:27:58.344Z,15.07
2018-11-28T12:30:25.833Z,14.93
2018-11-28T12:32:53.377Z,13.03
2018-11-28T12:35:20.841Z,13.30
2018-11-28T12:37:48.324Z,14.20
2018-11-28T12:40:16.266Z,11.40
2018-11-28T12:42:51.471Z,12.80
2018-11-28T12:45:19.901Z,12.93
2018-11-28T12:47:48.077Z,11.87
2018-11-28T12:50:17.585Z,12.57
2018-11-28T12:52:45.096Z,11.73
2018-11-28T12:55:16.317Z,11.67
2018-11-28T12:57:43.829Z,12.50
2018-11-28T13:00:12.836Z,13.53
2018-11-28T13:02:40.405Z,12.60
2018-11-28T13:05:09.613Z,12.00
2018-11-28T13:07:41.805Z,12.80
2018-11-28T13:10:11.673Z,11.30
2018-11-28T13:12:39.373Z,11.30
2018-11-28T13:15:12.960Z,12.37
2018-11-28T13:17:40.489Z,12.20
2018-11-28T13:20:11.220Z,13.23
2018-11-28T13:22:38.777Z,11.20
2018-11-28T13:25:08.255Z,12.80
2018-11-28T13:27:35.717Z,13.60
2018-11-28T13:30:11.161Z,11.10
2018-11-28T13:32:38.921Z,10.13
2018-11-28T13:35:06.668Z,13.57
2018-11-28T13:37:34.154Z,13.50
2018-11-28T13:40:01.645Z,12.93
2018-11-28T13:42:29.429Z,13.27
2018-11-28T13:45:01.685Z,12.40
2018-11-28T13:47:29.168Z,12.53
2018-11-28T13:49:56.659Z,9.60
2018-11-28T13:52:24.125Z,10.33
2018-11-28T13:55:37.699Z,10.07
2018-11-28T13:57:19.143Z,11.70
2018-11-28T13:59:50.742Z,11.80
2018-11-28T14:02:20.124Z,10.20
2018-11-28T14:04:47.821Z,10.20
2018-11-28T14:07:15.276Z,8.97
2018-11-28T14:09:42.709Z,10.70
2018-11-28T14:12:14.759Z,11.40
2018-11-28T14:14:42.238Z,9.87
2018-11-28T14:17:09.745Z,11.63
2018-11-28T14:19:37.216Z,10.37
2018-11-28T14:22:04.684Z,11.37
2018-11-28T14:24:32.210Z,12.10
2018-11-28T14:27:04.370Z,10.23
2018-11-28T14:29:31.906Z,11.30
2018-11-28T14:31:59.438Z,10.83
2018-11-28T14:34:26.901Z,11.70
2018-11-28T14:36:54.685Z,10.03
2018-11-28T14:39:22.161Z,11.93
2018-11-28T14:41:52.732Z,9.60
2018-11-28T14:44:20.196Z,13.70
2018-11-28T14:46:47.733Z,11.23
2018-11-28T14:49:15.205Z,9.47
2018-11-28T14:51:42.873Z,12.83
2018-11-28T14:54:10.366Z,11.67
2018-11-28T14:56:40.596Z,12.40
2018-11-28T14:59:08.240Z,10.40
2018-11-28T15:01:35.694Z,10.33
2018-11-28T15:04:03.164Z,12.03
2018-11-28T15:06:35.567Z,10.30
2018-11-28T15:09:14.317Z,10.27
2018-11-28T15:11:42.849Z,12.20
2018-11-28T15:14:10.310Z,10.30
2018-11-28T15:16:37.840Z,12.37
2018-11-28T15:19:06.338Z,11.93
2018-11-28T15:21:35.653Z,9.87
2018-11-28T15:24:03.146Z,11.40
2018-11-28T15:26:30.725Z,13.70
2018-11-28T15:28:58.265Z,11.00
2018-11-28T15:31:25.773Z,12.17
2018-11-28T15:33:54.440Z,11.70
2018-11-28T15:36:22.005Z,11.47
2018-11-28T15:38:49.496Z,10.40
2018-11-28T15:41:16.965Z,12.97
2018-11-28T15:43:44.531Z,12.40
2018-11-28T15:46:14.902Z,12.57
2018-11-28T15:48:39.496Z,11.87
2018-11-28T15:51:07.316Z,13.10
2018-11-28T15:53:34.834Z,10.27
2018-11-28T15:56:02.305Z,12.83
2018-11-28T15:58:29.865Z,15.43
2018-11-28T16:00:57.360Z,12.23
2018-11-28T16:03:24.841Z,10.40
2018-11-28T16:05:52.425Z,10.13
2018-11-28T16:08:20.220Z,13.43
2018-11-28T16:10:47.869Z,14.87
2018-11-28T16:13:16.921Z,12.33
2018-11-28T16:16:00.228Z,11.03
2018-11-28T16:18:27.736Z,14.70
2018-11-28T16:20:55.250Z,10.50
2018-11-28T16:23:22.749Z,9.20
2018-11-28T16:25:50.221Z,10.60
2018-11-28T16:28:17.757Z,10.07
2018-11-28T16:30:45.218Z,11.73
2018-11-28T16:33:12.808Z,12.53
2018-11-28T16:35:40.320Z,13.03
2018-11-28T16:38:08.062Z,10.10
2018-11-28T16:40:35.505Z,11.40
2018-11-28T16:43:02.997Z,13.70
2018-11-28T16:45:30.816Z,12.10
2018-11-28T16:47:58.296Z,13.43
2018-11-28T16:50:25.984Z,11.07
2018-11-28T16:52:53.416Z,12.10
2018-11-28T16:55:20.895Z,13.73
2018-11-28T16:57:51.149Z,15.00
2018-11-28T17:00:22.812Z,12.37
2018-11-28T17:02:50.951Z,11.73
2018-11-28T17:05:19.474Z,11.50
2018-11-28T17:07:47.341Z,13.03
2018-11-28T17:10:15.916Z,11.40
2018-11-28T17:12:44.277Z,15.20
2018-11-28T17:15:13.924Z,13.10
2018-11-28T17:17:41.501Z,16.97
2018-11-28T17:20:11.016Z,13.97
2018-11-28T17:22:38.585Z,16.43
2018-11-28T17:25:08.752Z,17.60
2018-11-28T17:27:36.208Z,18.97
2018-11-28T17:30:04.998Z,16.15
2018-11-28T17:32:32.453Z,19.35
2018-11-28T17:35:00.142Z,17.27
2018-11-28T17:37:27.628Z,21.37
2018-11-28T17:39:55.091Z,18.20
2018-11-28T17:42:22.549Z,18.73
2018-11-28T17:44:52.445Z,19.62
2018-11-28T17:47:19.896Z,19.52
2018-11-28T17:49:47.430Z,20.60
2018-11-28T17:52:14.863Z,18.52
2018-11-28T17:54:42.277Z,22.40
2018-11-28T17:57:09.740Z,17.62
2018-11-28T17:59:37.276Z,24.07
2018-11-28T18:02:05.097Z,20.75
2018-11-28T18:04:32.550Z,20.83
2018-11-28T18:07:00.357Z,21.97
2018-11-28T18:09:27.794Z,18.73
2018-11-28T18:11:55.273Z,15.88
2018-11-28T18:14:22.711Z,18.55
2018-11-28T18:16:50.207Z,16.48
2018-11-28T18:19:17.876Z,21.17
2018-11-28T18:21:45.404Z,19.42
2018-11-28T18:24:13.041Z,20.95
2018-11-28T18:26:40.501Z,17.75
2018-11-28T18:29:08.017Z,18.80
2018-11-28T18:31:35.506Z,16.00
2018-11-28T18:34:02.984Z,15.58
2018-11-28T18:36:30.486Z,19.27
2018-11-28T18:38:58.032Z,18.15
2018-11-28T18:41:25.857Z,16.57
2018-11-28T18:43:53.334Z,19.47
2018-11-28T18:46:20.797Z,15.50
2018-11-28T18:48:48.285Z,18.37
2018-11-28T18:51:15.865Z,16.55
2018-11-28T18:53:43.342Z,18.17
2018-11-28T18:56:10.986Z,16.93
2018-11-28T18:58:40.705Z,16.15
2018-11-28T19:01:08.237Z,14.75
2018-11-28T19:03:36.343Z,16.62
2018-11-28T19:06:03.978Z,14.07
2018-11-28T19:08:31.538Z,15.65
2018-11-28T19:10:59.666Z,15.83
2018-11-28T19:13:26.636Z,12.53
2018-11-28T19:15:54.200Z,15.53
2018-11-28T19:18:21.915Z,18.15
2018-11-28T19:20:49.323Z,13.05
2018-11-28T19:23:16.824Z,13.85
2018-11-28T19:25:49.781Z,14.93
2018-11-28T19:28:11.969Z,13.10
2018-11-28T19:30:40.346Z,14.63
2018-11-28T19:33:11.139Z,14.63
2018-11-28T19:35:38.753Z,11.97
2018-11-28T19:38:08.209Z,12.28
2018-11-28T19:40:39.136Z,13.32
2018-11-28T19:43:06.864Z,14.50
2018-11-28T19:45:34.412Z,13.60
2018-11-28T19:48:02.013Z,11.35
2018-11-28T19:50:33.404Z,12.05
2018-11-28T19:53:00.937Z,10.68
2018-11-28T19:55:28.615Z,10.08
2018-11-28T19:57:56.157Z,12.13
2018-11-28T20:00:23.724Z,11.75
2018-11-28T20:02:51.233Z,10.40
2018-11-28T20:05:18.874Z,10.98
2018-11-28T20:07:48.060Z,10.03
2018-11-28T20:10:17.944Z,12.82
2018-11-28T20:12:45.652Z,10.30
2018-11-28T20:15:14.476Z,11.80
2018-11-28T20:17:42.014Z,12.13
2018-11-28T20:20:10.724Z,11.33
2018-11-28T20:22:38.291Z,9.78
2018-11-28T20:25:08.729Z,12.37
2018-11-28T20:27:36.679Z,10.80
2018-11-28T20:30:08.413Z,10.10
2018-11-28T20:32:36.473Z,10.88
2018-11-28T20:35:08.284Z,9.17
2018-11-28T20:37:35.912Z,10.30
2018-11-28T20:40:06.917Z,8.90
2018-11-28T20:42:34.902Z,9.70
2018-11-28T20:45:02.492Z,9.18
2018-11-28T20:47:30.287Z,9.90
2018-11-28T20:49:57.984Z,10.25
2018-11-28T20:52:25.531Z,9.80
2018-11-28T20:54:53.006Z,8.58
2018-11-28T20:57:20.465Z,7.97
2018-11-28T20:59:48.070Z,9.10
2018-11-28T21:02:15.598Z,8.60
2018-11-28T21:04:43.074Z,7.55
2018-11-28T21:07:10.612Z,9.70
2018-11-28T21:09:44.119Z,8.50
2018-11-28T21:12:11.878Z,8.08
2018-11-28T21:14:39.411Z,10.00
2018-11-28T21:17:07.139Z,8.47
2018-11-28T21:19:34.641Z,7.93
2018-11-28T21:22:02.164Z,10.68
2018-11-28T21:24:29.709Z,9.25
2018-11-28T21:26:57.174Z,11.43
2018-11-28T21:29:24.640Z,8.97
2018-11-28T21:31:52.436Z,8.93
2018-11-28T21:34:19.990Z,9.00
2018-11-28T21:36:47.645Z,10.97
2018-11-28T21:39:15.161Z,10.80
2018-11-28T21:41:42.707Z,11.70
2018-11-28T21:44:10.799Z,10.50
2018-11-28T21:46:38.515Z,9.90
2018-11-28T21:49:06.217Z,8.43
2018-11-28T21:51:33.779Z,9.43
2018-11-28T21:54:01.263Z,8.93
2018-11-28T21:56:29.022Z,10.33
2018-11-28T21:58:56.545Z,10.00
2018-11-28T22:01:24.101Z,10.80
2018-11-28T22:03:51.696Z,9.57
2018-11-28T22:06:19.238Z,9.33
2018-11-28T22:08:48.050Z,9.93
2018-11-28T22:11:15.793Z,9.70
2018-11-28T22:13:43.369Z,11.50
2018-11-28T22:16:10.859Z,10.47
2018-11-28T22:18:38.433Z,10.00
2018-11-28T22:21:06.212Z,11.57
2018-11-28T22:23:33.668Z,10.27
2018-11-28T22:26:01.162Z,13.70
2018-11-28T22:28:29.016Z,10.57
2018-11-28T22:30:56.500Z,10.20
2018-11-28T22:33:23.968Z,9.23
2018-11-28T22:35:51.517Z,9.70
2018-11-28T22:38:19.186Z,10.77
2018-11-28T22:40:46.728Z,11.33
2018-11-28T22:43:18.076Z,13.13
2018-11-28T22:45:45.551Z,10.53
2018-11-28T22:48:13.173Z,11.20
2018-11-28T22:50:40.668Z,11.23
2018-11-28T22:53:08.245Z,12.30
2018-11-28T22:55:35.765Z,10.50
2018-11-28T22:58:03.263Z,11.07
2018-11-28T23:00:36.484Z,11.33
2018-11-28T23:03:06.800Z,9.23
2018-11-28T23:05:42.245Z,10.97
2018-11-28T23:08:10.922Z,10.67
2018-11-28T23:10:38.694Z,10.10
2018-11-28T23:13:07.241Z,9.40
2018-11-28T23:15:34.796Z,9.87
2018-11-28T23:18:02.309Z,10.87
2018-11-28T23:20:29.983Z,9.77
2018-11-28T23:22:57.414Z,9.97
2018-11-28T23:25:24.899Z,10.10
2018-11-28T23:27:52.389Z,10.40
2018-11-28T23:30:20.620Z,11.67
2018-11-28T23:32:48.961Z,9.83
2018-11-28T23:35:16.670Z,9.33
2018-11-28T23:37:45.277Z,9.20
2018-11-28T23:40:22.359Z,8.70
2018-11-28T23:42:50.449Z,9.07
2018-11-28T23:45:18.168Z,8.53
2018-11-28T23:47:45.672Z,9.70
2018-11-28T23:50:21.148Z,9.13
2018-11-28T23:52:49.277Z,9.63
2018-11-28T23:55:21.478Z,9.20
2018-11-28T23:57:49.051Z,8.77
